KBIX

Keesler AFB Airport

Biloxi, Mississippi, USA
METAR KBIX 181636Z AUTO 08003KT 5SM BR OVC006 20/19 A3022 RMK AO2 CIG 003 RWY03 SLP236
Observed Flight Rules
Dec-18 @ 16:36 UTC (12 minutes ago) Instrument Flight Rules
Wind Visibility Clouds Conditions
80° at 3 knots 5 miles
  • Overcast at 600' AGL
  • Mist
Temperatures Readings
Current 20°C / 68°F
Dewpoint 19°C / 66°F
Humidity 94%
Altimeter 30.22" Hg
Pressure 1023.6 hPa
Elevation 10
METAR KBIX 181636Z AUTO 08003KT 5SM BR OVC006 20/19 A3022 RMK AO2 CIG 003 RWY03 SLP236
Observed Flight Rules
Dec-18 @ 16:36 UTC
(12 minutes ago)
IFR
Wind Visibility
80° at 3 knots 5 miles
Clouds
  • Overcast at 600' AGL
Conditions
  • Mist
Temperature Dewpoint
20°C / 68°F 19°C / 66°F
Humidity Altimeter Pressure
94% 30.22" Hg 1023.6 hPa